Time;durP1;ratioP1;P1;durP2;ratioP2;P2;SDS_P1;SDS_P2;PMS_P1;PMS_P2;Temp;Humidity;BMP_temperature;BMP_pressure;BME280_temperature;BME280_humidity;BME280_pressure;Samples;Min_cycle;Max_cycle;Signal;HPM_P1;HPM_P2
2021/12/17 00:00:33;;;;;;;104.80;38.33;;;5.70;99.90;;;;;;5112054;28;20129;-74
2021/12/17 00:03:16;;;;;;;97.65;37.30;;;5.70;99.90;;;;;;5112518;28;20503;-74
2021/12/17 00:05:52;;;;;;;112.78;39.13;;;5.70;99.90;;;;;;5110394;28;20522;-74
2021/12/17 00:08:20;;;;;;;96.80;37.20;;;5.70;99.90;;;;;;5112105;28;20415;-75
2021/12/17 00:10:48;;;;;;;112.78;39.10;;;5.70;99.90;;;;;;5112593;28;20043;-74
2021/12/17 00:13:18;;;;;;;110.55;39.17;;;5.70;99.90;;;;;;5112059;28;20048;-78
2021/12/17 00:15:46;;;;;;;100.60;37.03;;;5.80;99.90;;;;;;5110621;28;20055;-73
2021/12/17 00:18:19;;;;;;;102.60;39.60;;;5.80;99.90;;;;;;5111678;28;20086;-74
2021/12/17 00:48:37;;;;;;;290.85;56.40;;;6.10;99.90;;;;;;5111257;28;20049;-74
2021/12/17 00:51:47;;;;;;;376.05;61.95;;;6.10;99.90;;;;;;5111634;28;20115;-73
2021/12/17 00:54:20;;;;;;;401.67;58.45;;;6.20;99.90;;;;;;5110705;28;20520;-73
2021/12/17 00:56:49;;;;;;;457.83;67.60;;;6.10;99.90;;;;;;5110318;28;20044;-73
2021/12/17 00:59:18;;;;;;;316.13;55.10;;;6.10;99.90;;;;;;5111500;28;20405;-73
2021/12/17 01:01:48;;;;;;;409.23;61.42;;;6.20;99.90;;;;;;5111053;28;20503;-74
2021/12/17 01:04:15;;;;;;;326.83;52.92;;;6.10;99.90;;;;;;5111119;28;20073;-74
2021/12/17 01:06:44;;;;;;;445.83;67.18;;;6.20;99.90;;;;;;5110431;28;20039;-75
2021/12/17 01:09:16;;;;;;;343.50;58.42;;;6.20;99.90;;;;;;5110485;28;20105;-74
2021/12/17 01:11:48;;;;;;;345.70;58.97;;;6.20;99.90;;;;;;5111383;28;20047;-77
2021/12/17 01:14:15;;;;;;;354.77;61.67;;;6.20;99.90;;;;;;5111750;28;20047;-75
2021/12/17 01:16:45;;;;;;;509.95;69.65;;;6.20;99.90;;;;;;5110977;28;20384;-74
2021/12/17 01:19:21;;;;;;;377.00;59.55;;;6.20;99.90;;;;;;5114823;28;20044;-74
2021/12/17 01:22:02;;;;;;;313.88;51.33;;;6.10;99.90;;;;;;5115804;28;20487;-74
2021/12/17 01:24:45;;;;;;;358.80;58.55;;;6.10;99.90;;;;;;5115540;28;20109;-74
2021/12/17 01:35:29;;;;;;;299.27;48.92;;;6.00;99.90;;;;;;5113817;28;20518;-75
2021/12/17 01:43:29;;;;;;;280.73;50.85;;;6.10;99.90;;;;;;5113570;28;20478;-67
2021/12/17 01:45:56;;;;;;;547.22;63.55;;;6.10;99.90;;;;;;5112790;28;20480;-67
2021/12/17 01:48:31;;;;;;;456.65;57.60;;;5.90;99.90;;;;;;5113659;28;20106;-67
2021/12/17 01:56:53;;;;;;;618.83;65.68;;;6.00;99.90;;;;;;5075652;28;20044;-67
2021/12/17 01:59:26;;;;;;;323.98;49.70;;;6.00;99.90;;;;;;5112955;28;20055;-67
2021/12/17 02:01:59;;;;;;;376.67;51.35;;;6.00;99.90;;;;;;5115233;28;20098;-67
2021/12/17 02:04:26;;;;;;;319.92;50.05;;;5.90;99.90;;;;;;5115260;28;20051;-67
2021/12/17 02:06:54;;;;;;;405.90;57.78;;;5.90;99.90;;;;;;5115282;28;20048;-67
2021/12/17 02:12:22;;;;;;;369.77;50.75;;;5.80;99.90;;;;;;5111987;28;20447;-67
2021/12/17 02:21:08;;;;;;;299.38;45.60;;;5.80;99.90;;;;;;5112491;28;20042;-67
2021/12/17 02:29:36;;;;;;;308.42;47.17;;;5.80;99.90;;;;;;5111927;28;20055;-67
2021/12/17 02:32:05;;;;;;;184.43;36.92;;;5.80;99.90;;;;;;5112420;28;20491;-67
2021/12/17 02:34:51;;;;;;;323.17;41.03;;;5.80;99.90;;;;;;5112394;28;20055;-67
2021/12/17 02:37:23;;;;;;;203.20;36.85;;;5.70;99.90;;;;;;5112563;28;20060;-67
2021/12/17 02:40:06;;;;;;;217.23;39.20;;;5.70;99.90;;;;;;5112718;28;20067;-67
2021/12/17 02:45:31;;;;;;;185.00;36.22;;;5.70;99.90;;;;;;5124075;28;20063;-67
2021/12/17 02:45:34;;;;;;;239.63;33.95;;;5.70;99.90;;;;;;5123288;28;20061;-67
2021/12/17 02:48:04;;;;;;;218.68;38.60;;;5.70;99.90;;;;;;5112494;28;20100;-67
2021/12/17 02:50:32;;;;;;;225.77;39.08;;;5.60;99.90;;;;;;5112405;28;20066;-67
2021/12/17 02:53:02;;;;;;;259.25;38.45;;;5.40;99.90;;;;;;5112512;28;20075;-67
2021/12/17 02:55:31;;;;;;;266.17;34.92;;;5.40;99.90;;;;;;5111323;28;20093;-67
2021/12/17 02:57:58;;;;;;;283.58;33.85;;;5.40;99.90;;;;;;5111963;28;20043;-67
2021/12/17 03:00:26;;;;;;;272.13;35.15;;;5.30;99.90;;;;;;5112413;28;20092;-67
2021/12/17 03:02:56;;;;;;;284.98;35.42;;;5.30;99.90;;;;;;5112479;28;20116;-67
2021/12/17 03:05:24;;;;;;;237.48;34.70;;;5.20;99.90;;;;;;5111671;28;20043;-67
2021/12/17 03:07:51;;;;;;;174.82;30.27;;;5.10;99.90;;;;;;5111748;28;20091;-67
2021/12/17 03:10:20;;;;;;;151.90;26.15;;;5.00;99.90;;;;;;5111887;28;20101;-67
2021/12/17 03:12:50;;;;;;;262.95;33.80;;;4.90;99.90;;;;;;5111767;28;20176;-66
2021/12/17 03:15:25;;;;;;;229.70;31.23;;;4.80;99.90;;;;;;5111876;28;20081;-67
2021/12/17 03:18:26;;;;;;;341.08;32.30;;;4.80;99.90;;;;;;5112053;28;20093;-67
2021/12/17 03:23:40;;;;;;;190.45;24.38;;;4.70;99.90;;;;;;5111877;28;20047;-67
2021/12/17 03:26:11;;;;;;;267.92;26.77;;;4.70;99.90;;;;;;5111165;28;20566;-67
2021/12/17 03:28:39;;;;;;;216.45;25.40;;;4.80;99.90;;;;;;5113396;28;20047;-67
2021/12/17 03:31:07;;;;;;;376.30;31.08;;;4.90;99.90;;;;;;5113298;28;20097;-67
2021/12/17 03:33:34;;;;;;;340.02;35.33;;;5.00;99.90;;;;;;5111968;28;20051;-67
2021/12/17 03:36:01;;;;;;;275.27;32.00;;;5.00;99.90;;;;;;5110765;28;20100;-67
2021/12/17 03:38:29;;;;;;;260.35;30.30;;;4.90;99.90;;;;;;5111272;28;20079;-67
2021/12/17 03:41:10;;;;;;;162.38;22.70;;;5.00;99.90;;;;;;5110237;28;20047;-67
2021/12/17 03:43:39;;;;;;;125.13;20.40;;;4.90;99.90;;;;;;5111089;28;20132;-67
2021/12/17 03:46:06;;;;;;;209.48;25.17;;;4.90;99.90;;;;;;5110272;28;20105;-67
2021/12/17 03:48:36;;;;;;;173.98;23.38;;;4.80;99.90;;;;;;5110872;28;20052;-67
2021/12/17 03:51:04;;;;;;;159.70;25.05;;;4.70;99.90;;;;;;5111264;28;20090;-67
2021/12/17 03:53:31;;;;;;;162.57;22.25;;;4.70;99.90;;;;;;5110650;28;20058;-67
2021/12/17 03:55:59;;;;;;;244.05;30.65;;;4.90;99.90;;;;;;5110131;28;20116;-67
2021/12/17 03:58:26;;;;;;;318.52;37.25;;;5.00;99.90;;;;;;5110983;28;20112;-67
2021/12/17 04:00:54;;;;;;;202.10;31.05;;;5.00;99.90;;;;;;5110840;28;20104;-67
2021/12/17 04:03:21;;;;;;;299.52;35.05;;;5.00;99.90;;;;;;5110626;28;20151;-67
2021/12/17 04:05:48;;;;;;;280.90;32.70;;;4.90;99.90;;;;;;5110150;28;20048;-67
2021/12/17 04:08:15;;;;;;;175.00;27.95;;;4.90;99.90;;;;;;5110861;28;20047;-67
2021/12/17 04:10:46;;;;;;;146.90;24.35;;;4.90;99.90;;;;;;5110539;28;20043;-67
2021/12/17 04:13:25;;;;;;;203.55;27.50;;;4.80;99.90;;;;;;5110496;28;20510;-66
2021/12/17 04:15:57;;;;;;;249.48;26.85;;;4.80;99.90;;;;;;5110187;28;20511;-67
2021/12/17 04:18:25;;;;;;;359.38;33.58;;;4.70;99.90;;;;;;5111108;28;20083;-66
2021/12/17 04:20:52;;;;;;;201.70;25.88;;;4.70;99.90;;;;;;5110933;28;20048;-66
2021/12/17 04:23:20;;;;;;;147.93;23.17;;;4.70;99.90;;;;;;5110152;28;20485;-67
2021/12/17 04:25:48;;;;;;;235.90;28.52;;;4.80;99.90;;;;;;5109685;28;20051;-67
2021/12/17 04:28:15;;;;;;;184.20;24.75;;;4.80;99.90;;;;;;5110434;28;20051;-68
2021/12/17 04:30:44;;;;;;;123.25;22.88;;;4.80;99.90;;;;;;5110754;28;20130;-67
2021/12/17 04:33:13;;;;;;;137.25;22.38;;;4.70;99.90;;;;;;5110930;28;20051;-67
2021/12/17 04:35:40;;;;;;;169.13;22.67;;;4.60;99.90;;;;;;5109142;28;20560;-67
2021/12/17 04:38:09;;;;;;;165.95;26.95;;;4.60;99.90;;;;;;5110025;28;20051;-67
2021/12/17 04:40:39;;;;;;;164.43;24.38;;;4.30;99.90;;;;;;5109852;28;20418;-67
2021/12/17 04:43:16;;;;;;;170.65;25.67;;;4.20;99.90;;;;;;5110624;28;20142;-67
2021/12/17 04:45:49;;;;;;;131.32;22.95;;;4.10;99.90;;;;;;5109438;28;20048;-67
2021/12/17 04:59:15;;;;;;;153.20;23.63;;;4.00;99.90;;;;;;5110308;28;20055;-67
2021/12/17 05:01:42;;;;;;;127.30;22.38;;;4.10;99.90;;;;;;5110181;28;20120;-67
2021/12/17 05:04:11;;;;;;;148.23;23.60;;;4.10;99.90;;;;;;5110101;28;20044;-67
2021/12/17 05:06:38;;;;;;;116.50;22.48;;;4.20;99.90;;;;;;5109224;28;20062;-67
2021/12/17 05:09:10;;;;;;;192.80;26.55;;;4.20;99.90;;;;;;5109544;28;20418;-67
2021/12/17 05:19:52;;;;;;;139.40;25.60;;;4.30;99.90;;;;;;5110163;28;20058;-67
2021/12/17 05:22:19;;;;;;;133.63;24.85;;;4.40;99.90;;;;;;5110215;28;20391;-67
2021/12/17 05:24:47;;;;;;;121.95;23.42;;;4.50;99.90;;;;;;5109025;28;20047;-67
2021/12/17 05:27:14;;;;;;;88.88;23.52;;;4.50;99.90;;;;;;5109414;28;20406;-66
2021/12/17 05:29:41;;;;;;;77.50;19.95;;;4.50;99.90;;;;;;5109622;28;20066;-67
2021/12/17 05:32:09;;;;;;;81.70;21.15;;;4.60;99.90;;;;;;5109574;28;20047;-67
2021/12/17 05:34:36;;;;;;;88.75;19.00;;;4.50;99.90;;;;;;5109589;28;20422;-67
2021/12/17 05:37:05;;;;;;;143.95;21.23;;;4.50;99.90;;;;;;5109595;28;20173;-67
2021/12/17 05:39:32;;;;;;;117.65;22.60;;;4.50;99.90;;;;;;5110148;28;20047;-67
2021/12/17 05:41:59;;;;;;;117.53;21.70;;;4.50;99.90;;;;;;5113761;28;20079;-67
2021/12/17 05:44:26;;;;;;;95.32;19.95;;;4.40;99.90;;;;;;5114731;28;20074;-67
2021/12/17 05:46:53;;;;;;;112.28;21.73;;;4.50;99.90;;;;;;5115231;28;20062;-67
2021/12/17 05:49:22;;;;;;;140.93;23.42;;;4.60;99.90;;;;;;5113509;28;20047;-67
2021/12/17 05:51:49;;;;;;;124.50;22.67;;;4.60;99.90;;;;;;5120719;28;20093;-67
2021/12/17 05:54:18;;;;;;;114.15;22.98;;;4.50;99.90;;;;;;5120616;28;20044;-68
2021/12/17 05:56:46;;;;;;;113.43;22.88;;;4.60;99.90;;;;;;5110202;28;20465;-67
2021/12/17 05:59:13;;;;;;;155.00;24.63;;;4.50;99.90;;;;;;5109636;28;20055;-67
2021/12/17 06:01:40;;;;;;;109.18;21.67;;;4.60;99.90;;;;;;5109074;28;20105;-67
2021/12/17 06:04:07;;;;;;;88.13;20.20;;;4.60;99.90;;;;;;5111027;28;20047;-67
2021/12/17 06:06:36;;;;;;;108.45;24.42;;;4.60;99.90;;;;;;5112425;28;20317;-67
2021/12/17 06:09:06;;;;;;;104.53;22.98;;;4.60;99.90;;;;;;5112937;28;20469;-67
2021/12/17 06:11:36;;;;;;;107.18;21.85;;;4.60;99.90;;;;;;5113499;28;20055;-67
2021/12/17 06:14:05;;;;;;;82.80;21.02;;;4.60;99.90;;;;;;5113991;28;20101;-67
2021/12/17 06:16:33;;;;;;;62.30;18.58;;;4.40;99.90;;;;;;5114079;28;20062;-67
2021/12/17 06:19:01;;;;;;;106.20;23.52;;;4.50;99.90;;;;;;5113593;28;20490;-67
2021/12/17 06:21:28;;;;;;;71.00;20.40;;;4.50;99.90;;;;;;5113409;28;20507;-69
2021/12/17 06:23:55;;;;;;;90.00;20.70;;;4.50;99.90;;;;;;5120233;28;20051;-70
2021/12/17 06:26:22;;;;;;;94.97;19.83;;;4.30;99.90;;;;;;5121193;28;20081;-68
2021/12/17 06:28:50;;;;;;;121.50;20.33;;;4.20;99.90;;;;;;5118855;28;20081;-67
2021/12/17 06:31:18;;;;;;;88.75;19.05;;;4.40;99.90;;;;;;5113525;28;20048;-67
2021/12/17 06:33:45;;;;;;;155.38;23.75;;;4.40;99.90;;;;;;5112214;28;20057;-67
2021/12/17 06:36:13;;;;;;;91.90;19.98;;;4.40;99.90;;;;;;5111624;28;20051;-67
2021/12/17 06:38:40;;;;;;;91.65;21.42;;;4.40;99.90;;;;;;5112296;28;20499;-67
2021/12/17 06:41:07;;;;;;;115.32;22.27;;;4.50;99.90;;;;;;5112398;28;20536;-67
2021/12/17 06:43:38;;;;;;;92.95;22.00;;;4.50;99.90;;;;;;5112175;28;20115;-67
2021/12/17 06:46:19;;;;;;;126.30;23.70;;;4.60;99.90;;;;;;5111115;28;20051;-67
2021/12/17 06:48:51;;;;;;;138.15;22.08;;;4.60;99.90;;;;;;5112279;28;20134;-67
2021/12/17 06:59:56;;;;;;;104.60;19.40;;;4.50;99.90;;;;;;5049353;28;20041;-67
2021/12/17 07:10:53;;;;;;;109.10;19.25;;;4.40;99.90;;;;;;5089690;28;20498;-67
2021/12/17 07:21:54;;;;;;;103.68;17.40;;;4.30;99.90;;;;;;5112216;28;20058;-67
2021/12/17 07:32:47;;;;;;;103.47;16.85;;;4.20;99.90;;;;;;5111382;28;20559;-67
2021/12/17 07:40:45;;;;;;;106.07;17.52;;;4.10;99.90;;;;;;5114267;28;20050;-73
2021/12/17 07:43:22;;;;;;;89.93;18.38;;;4.10;99.90;;;;;;5113857;28;20448;-73
2021/12/17 07:45:49;;;;;;;75.40;15.68;;;4.10;99.90;;;;;;5113585;28;20062;-74
2021/12/17 07:48:16;;;;;;;84.63;17.58;;;4.20;99.90;;;;;;5113689;28;20051;-72
2021/12/17 07:50:44;;;;;;;108.60;18.25;;;4.20;99.90;;;;;;5114327;28;20073;-74
2021/12/17 07:53:12;;;;;;;98.45;17.58;;;4.20;99.90;;;;;;5113838;28;20048;-77
2021/12/17 07:55:39;;;;;;;93.38;17.80;;;4.20;99.90;;;;;;5113127;28;20464;-74
2021/12/17 07:58:06;;;;;;;95.72;17.63;;;4.10;99.90;;;;;;5114423;28;20104;-74
2021/12/17 08:00:33;;;;;;;122.10;19.00;;;4.20;99.90;;;;;;5113701;28;20052;-73
2021/12/17 08:03:00;;;;;;;79.60;14.93;;;4.10;99.90;;;;;;5114131;28;20100;-74
2021/12/17 08:05:27;;;;;;;66.82;14.80;;;4.10;99.90;;;;;;5112565;28;20055;-75
2021/12/17 08:07:56;;;;;;;126.10;18.25;;;4.10;99.90;;;;;;5113066;28;20051;-76
2021/12/17 08:10:23;;;;;;;88.82;16.25;;;4.10;99.90;;;;;;5113218;28;20044;-75
2021/12/17 08:12:54;;;;;;;82.70;14.40;;;4.10;99.90;;;;;;5113306;28;20047;-77
2021/12/17 08:15:28;;;;;;;77.35;14.63;;;4.20;99.90;;;;;;5112680;28;20051;-74
2021/12/17 08:18:18;;;;;;;81.15;13.70;;;4.10;99.90;;;;;;5113324;28;20138;-73
2021/12/17 08:26:17;;;;;;;114.07;16.17;;;4.20;99.90;;;;;;5111245;28;20051;-74
2021/12/17 08:29:22;;;;;;;71.32;13.77;;;4.10;99.90;;;;;;5113575;28;20101;-73
2021/12/17 08:31:44;;;;;;;43.08;11.95;;;4.10;99.90;;;;;;5113164;28;20044;-75
2021/12/17 08:34:11;;;;;;;39.00;12.10;;;4.10;99.90;;;;;;5113452;28;20048;-73
2021/12/17 08:36:38;;;;;;;29.50;10.57;;;4.10;99.90;;;;;;5111727;28;20096;-74
2021/12/17 08:39:07;;;;;;;33.00;10.77;;;4.00;99.90;;;;;;5112407;28;20124;-73
2021/12/17 08:41:34;;;;;;;30.45;10.60;;;4.10;99.90;;;;;;5112899;28;20093;-73
2021/12/17 08:44:01;;;;;;;29.75;11.02;;;4.10;99.90;;;;;;5112617;28;20101;-75
2021/12/17 08:46:28;;;;;;;40.03;11.70;;;4.20;99.90;;;;;;5112180;28;20054;-74
2021/12/17 08:48:55;;;;;;;29.13;10.45;;;4.30;99.90;;;;;;5112637;28;20073;-75
2021/12/17 08:51:22;;;;;;;27.40;10.65;;;4.20;99.90;;;;;;5112848;28;20048;-75
2021/12/17 08:53:49;;;;;;;35.35;11.18;;;4.20;99.90;;;;;;5112672;28;20414;-73
2021/12/17 08:56:20;;;;;;;30.48;10.10;;;4.10;99.90;;;;;;5113248;28;20047;-75
2021/12/17 08:58:47;;;;;;;33.13;11.45;;;4.00;99.90;;;;;;5113945;28;20293;-75
2021/12/17 09:01:14;;;;;;;33.80;11.07;;;4.10;99.90;;;;;;5113675;28;20511;-74
2021/12/17 09:03:41;;;;;;;31.27;11.18;;;4.10;99.90;;;;;;5112779;28;20481;-74
2021/12/17 09:06:08;;;;;;;32.92;11.52;;;4.20;99.90;;;;;;5111248;28;20556;-74
2021/12/17 09:08:35;;;;;;;32.42;11.63;;;4.20;99.90;;;;;;5113172;28;20048;-74
2021/12/17 09:11:02;;;;;;;32.28;10.93;;;4.20;99.90;;;;;;5113333;28;20051;-76
2021/12/17 09:13:31;;;;;;;32.90;11.90;;;4.10;99.90;;;;;;5113378;28;20052;-75
2021/12/17 09:16:06;;;;;;;54.83;14.48;;;4.10;99.90;;;;;;5112925;28;20086;-74
2021/12/17 09:18:34;;;;;;;46.00;14.77;;;4.10;99.90;;;;;;5113989;28;20096;-73
2021/12/17 09:21:01;;;;;;;63.95;16.30;;;4.20;99.90;;;;;;5113395;28;20074;-73
2021/12/17 09:23:28;;;;;;;70.60;15.75;;;4.10;99.90;;;;;;5113981;28;20557;-75
2021/12/17 09:25:55;;;;;;;50.60;15.18;;;4.10;99.90;;;;;;5113626;28;20073;-73
2021/12/17 09:28:22;;;;;;;46.92;14.05;;;4.10;99.90;;;;;;5113903;28;20415;-74
2021/12/17 09:30:51;;;;;;;48.70;14.57;;;4.10;99.90;;;;;;5114621;28;20043;-73
2021/12/17 09:33:18;;;;;;;58.55;13.73;;;4.10;99.90;;;;;;5113990;28;20100;-74
2021/12/17 09:35:45;;;;;;;33.97;12.80;;;4.30;99.90;;;;;;5112844;28;20044;-76
2021/12/17 09:38:12;;;;;;;39.95;13.55;;;4.30;99.90;;;;;;5113701;28;20079;-75
2021/12/17 09:40:40;;;;;;;46.88;13.55;;;4.40;99.90;;;;;;5117271;28;20047;-76
2021/12/17 09:43:07;;;;;;;45.50;12.95;;;4.40;99.90;;;;;;5117743;28;20083;-75
2021/12/17 09:45:34;;;;;;;45.03;13.40;;;4.50;99.90;;;;;;5116331;28;20047;-75
2021/12/17 09:48:03;;;;;;;46.47;14.55;;;4.40;99.90;;;;;;5117527;28;20123;-73
2021/12/17 09:50:31;;;;;;;57.67;15.70;;;4.50;99.90;;;;;;5116961;28;20097;-74
2021/12/17 09:52:58;;;;;;;44.35;14.15;;;4.50;99.90;;;;;;5116943;28;20043;-73
2021/12/17 09:55:27;;;;;;;36.38;13.30;;;4.40;99.90;;;;;;5115745;28;20043;-73
2021/12/17 09:57:54;;;;;;;33.55;11.98;;;4.50;99.90;;;;;;5116303;28;20073;-74
2021/12/17 10:00:26;;;;;;;40.47;11.48;;;4.50;99.90;;;;;;5116898;28;20056;-73
2021/12/17 10:02:53;;;;;;;40.95;11.07;;;4.40;99.90;;;;;;5116502;28;20086;-74
2021/12/17 10:05:26;;;;;;;31.20;10.48;;;4.50;99.90;;;;;;5115330;28;20047;-74
2021/12/17 10:07:55;;;;;;;34.78;10.38;;;4.50;99.90;;;;;;5116955;28;20039;-75
2021/12/17 10:10:32;;;;;;;33.95;9.85;;;4.50;99.90;;;;;;5117302;28;20176;-73
2021/12/17 10:13:07;;;;;;;26.90;9.93;;;4.50;99.90;;;;;;5116659;28;20103;-74
2021/12/17 10:15:36;;;;;;;26.88;9.23;;;4.50;99.90;;;;;;5116607;28;20079;-73
2021/12/17 10:18:03;;;;;;;32.58;9.75;;;4.30;99.90;;;;;;5116686;28;20449;-73
2021/12/17 10:20:34;;;;;;;31.27;9.35;;;4.40;99.90;;;;;;5117309;28;20079;-75
2021/12/17 10:23:04;;;;;;;29.00;10.02;;;4.40;99.90;;;;;;5116579;28;20051;-74
2021/12/17 10:25:32;;;;;;;37.35;12.55;;;4.30;99.90;;;;;;5115830;28;20409;-75
2021/12/17 10:28:00;;;;;;;66.05;24.50;;;4.30;99.90;;;;;;5116575;28;20108;-74
2021/12/17 10:30:29;;;;;;;43.50;16.67;;;4.40;99.90;;;;;;5117568;28;20112;-74
2021/12/17 10:32:59;;;;;;;42.55;14.20;;;4.30;99.90;;;;;;5118601;28;20422;-73
2021/12/17 10:35:28;;;;;;;39.05;14.18;;;4.20;99.90;;;;;;5117016;28;20537;-73
2021/12/17 10:38:00;;;;;;;39.08;13.40;;;4.30;99.90;;;;;;5117255;28;20060;-74
2021/12/17 10:40:30;;;;;;;33.75;11.52;;;4.40;99.90;;;;;;5116766;28;20124;-74
2021/12/17 10:43:02;;;;;;;38.08;11.30;;;4.40;99.90;;;;;;5116059;28;20514;-73
2021/12/17 10:45:33;;;;;;;34.17;11.57;;;4.40;99.90;;;;;;5115993;28;20052;-74
2021/12/17 10:51:16;;;;;;;29.92;11.73;;;4.50;99.90;;;;;;5078346;28;20082;-75
2021/12/17 10:53:54;;;;;;;31.65;10.90;;;4.50;99.90;;;;;;5115389;28;20079;-73
2021/12/17 10:56:22;;;;;;;33.38;10.98;;;4.60;99.90;;;;;;5114775;28;20247;-74
2021/12/17 10:58:58;;;;;;;28.25;10.52;;;4.60;99.90;;;;;;5115379;28;20056;-74
2021/12/17 11:01:35;;;;;;;32.80;11.38;;;4.60;99.90;;;;;;5115546;28;20052;-74
2021/12/17 11:04:08;;;;;;;32.30;10.65;;;4.70;99.90;;;;;;5114689;28;20499;-74
2021/12/17 11:06:43;;;;;;;26.80;11.30;;;4.70;99.90;;;;;;5115126;28;20047;-74
2021/12/17 11:09:12;;;;;;;24.17;10.90;;;4.70;99.90;;;;;;5116744;28;20055;-73
2021/12/17 11:11:42;;;;;;;24.27;10.40;;;4.60;99.90;;;;;;5117152;28;20590;-74
2021/12/17 11:14:10;;;;;;;26.88;11.48;;;4.50;99.90;;;;;;5118153;28;20048;-73
2021/12/17 11:16:39;;;;;;;24.90;10.45;;;4.60;99.90;;;;;;5116533;28;20043;-74
2021/12/17 11:19:08;;;;;;;22.75;9.65;;;4.70;99.90;;;;;;5120429;28;20062;-74
2021/12/17 11:21:35;;;;;;;22.08;10.38;;;4.80;99.90;;;;;;5115697;28;20043;-74
2021/12/17 11:24:03;;;;;;;21.42;9.43;;;5.00;99.90;;;;;;5113987;28;20052;-74
2021/12/17 11:26:32;;;;;;;24.60;10.32;;;4.90;99.90;;;;;;5114318;28;20048;-74
2021/12/17 11:29:03;;;;;;;24.85;11.27;;;5.00;99.90;;;;;;5114825;28;20047;-75
2021/12/17 11:31:32;;;;;;;27.60;11.13;;;5.00;99.90;;;;;;5113865;28;20047;-74
2021/12/17 11:34:01;;;;;;;22.17;9.98;;;5.10;99.90;;;;;;5114475;28;20083;-72
2021/12/17 11:36:29;;;;;;;20.67;9.65;;;5.10;99.90;;;;;;5113784;28;20051;-77
2021/12/17 11:39:06;;;;;;;28.05;11.48;;;5.00;99.90;;;;;;5114121;28;20093;-74
2021/12/17 11:41:42;;;;;;;;;;;5.20;99.90;;;;;;5109335;28;20040;-72
2021/12/17 11:44:12;;;;;;;23.02;11.15;;;5.30;99.90;;;;;;5113015;28;20247;-75
2021/12/17 11:46:39;;;;;;;26.38;12.75;;;5.40;99.90;;;;;;5112958;28;20097;-75
2021/12/17 11:49:12;;;;;;;29.60;12.82;;;5.40;99.90;;;;;;5113592;28;20563;-74
2021/12/17 11:51:40;;;;;;;23.67;12.55;;;5.40;99.90;;;;;;5103115;28;20552;-73
2021/12/17 11:54:10;;;;;;;24.45;12.95;;;5.50;99.90;;;;;;5107397;28;20088;-75
2021/12/17 11:56:42;;;;;;;23.92;13.05;;;5.60;99.90;;;;;;5112473;28;20117;-76
2021/12/17 11:59:32;;;;;;;24.55;12.73;;;5.50;99.90;;;;;;5095658;28;20064;-74
2021/12/17 12:02:19;;;;;;;25.73;13.38;;;5.50;99.90;;;;;;5107775;28;20122;-74
2021/12/17 12:04:56;;;;;;;27.75;13.80;;;5.50;99.90;;;;;;5092421;28;20423;-73
2021/12/17 12:07:38;;;;;;;27.05;14.00;;;5.40;99.90;;;;;;5092800;28;20070;-74
2021/12/17 12:10:23;;;;;;;26.60;12.85;;;5.50;99.90;;;;;;5092891;28;20052;-72
2021/12/17 12:13:01;;;;;;;23.08;12.98;;;5.60;99.90;;;;;;5089507;28;20097;-74
2021/12/17 12:15:32;;;;;;;21.30;12.35;;;5.50;99.90;;;;;;5090539;28;20040;-73
2021/12/17 12:18:21;;;;;;;24.02;12.90;;;5.50;99.90;;;;;;5092098;28;20074;-74
2021/12/17 12:20:56;;;;;;;28.08;13.75;;;5.40;99.90;;;;;;5092117;28;20063;-72
2021/12/17 12:23:26;;;;;;;25.38;13.98;;;5.50;99.90;;;;;;5091948;28;20109;-75
2021/12/17 12:26:15;;;;;;;25.83;13.43;;;5.70;99.90;;;;;;5090795;28;20101;-73
2021/12/17 12:29:03;;;;;;;21.98;12.82;;;5.80;99.90;;;;;;5092228;28;20117;-74
2021/12/17 12:31:54;;;;;;;22.63;11.57;;;5.90;99.90;;;;;;5092451;28;20052;-75
2021/12/17 12:34:23;;;;;;;25.40;13.02;;;5.70;99.90;;;;;;5091599;28;20459;-72
2021/12/17 12:36:53;;;;;;;23.80;13.82;;;5.70;99.90;;;;;;5090791;28;20454;-74
2021/12/17 12:39:22;;;;;;;20.30;12.07;;;5.80;99.90;;;;;;5112549;28;20052;-74
2021/12/17 12:42:01;;;;;;;21.75;12.60;;;5.80;99.90;;;;;;5112005;28;20392;-76
2021/12/17 12:45:02;;;;;;;22.73;13.20;;;5.90;99.90;;;;;;5112656;28;20044;-73
2021/12/17 12:47:51;;;;;;;21.90;12.13;;;5.90;99.90;;;;;;5107672;28;20450;-73
2021/12/17 12:50:20;;;;;;;22.95;12.63;;;5.80;99.90;;;;;;5112079;28;20047;-71
2021/12/17 12:52:51;;;;;;;23.45;11.55;;;5.70;99.90;;;;;;5111422;28;20466;-73
2021/12/17 12:55:25;;;;;;;21.73;12.93;;;5.70;99.90;;;;;;5110667;28;20640;-72
2021/12/17 12:57:55;;;;;;;24.75;13.82;;;5.70;99.90;;;;;;5111907;28;20577;-71
2021/12/17 13:00:24;;;;;;;24.60;12.73;;;5.80;99.90;;;;;;5111825;28;20384;-72
2021/12/17 13:02:57;;;;;;;21.08;12.73;;;5.90;99.90;;;;;;5111689;28;20469;-71
2021/12/17 13:05:25;;;;;;;19.15;11.48;;;5.90;99.90;;;;;;5111269;28;20419;-71
2021/12/17 13:07:55;;;;;;;20.25;12.02;;;6.00;99.90;;;;;;5111645;28;20055;-76
2021/12/17 13:10:24;;;;;;;20.15;11.15;;;5.90;99.90;;;;;;5111869;28;20047;-71
2021/12/17 13:12:58;;;;;;;20.00;11.07;;;5.90;99.90;;;;;;5113388;28;20514;-72
2021/12/17 13:15:40;;;;;;;18.15;10.60;;;5.90;99.90;;;;;;5115305;28;20043;-72
2021/12/17 13:21:20;;;;;;;21.05;10.75;;;6.00;99.90;;;;;;5117141;28;20473;-73
2021/12/17 13:23:52;;;;;;;16.27;10.05;;;5.90;99.90;;;;;;5115476;28;20143;-73
2021/12/17 13:26:23;;;;;;;20.80;11.13;;;5.90;99.90;;;;;;5115182;28;20096;-74
2021/12/17 13:28:59;;;;;;;16.05;10.27;;;5.80;99.90;;;;;;5115957;28;20470;-73
2021/12/17 13:31:49;;;;;;;16.88;10.35;;;5.80;99.90;;;;;;5115632;28;20052;-73
2021/12/17 13:34:21;;;;;;;17.70;10.02;;;6.10;99.90;;;;;;5111662;28;20427;-75
2021/12/17 13:39:35;;;;;;;17.23;9.25;;;6.00;99.90;;;;;;5089625;28;20052;-67
2021/12/17 13:42:04;;;;;;;14.63;7.75;;;6.00;99.90;;;;;;5092909;28;20048;-66
2021/12/17 13:44:43;;;;;;;14.70;8.73;;;6.00;99.90;;;;;;5098490;28;20083;-67
2021/12/17 13:47:24;;;;;;;16.13;8.98;;;6.10;99.90;;;;;;5113114;28;20051;-66
2021/12/17 13:49:55;;;;;;;15.57;7.88;;;6.30;99.90;;;;;;5112732;28;20105;-66
2021/12/17 13:52:25;;;;;;;17.58;8.30;;;6.40;99.90;;;;;;5113056;28;20487;-66
2021/12/17 13:54:53;;;;;;;17.02;8.55;;;6.70;99.90;;;;;;5112165;28;20491;-66
2021/12/17 13:57:25;;;;;;;14.80;8.10;;;6.60;99.90;;;;;;5113167;28;20129;-66
2021/12/17 13:59:52;;;;;;;15.85;8.38;;;6.40;99.90;;;;;;5113056;28;20090;-66
2021/12/17 14:02:21;;;;;;;14.25;8.00;;;6.30;99.90;;;;;;5112365;28;20043;-67
2021/12/17 14:05:04;;;;;;;13.88;8.48;;;6.20;99.90;;;;;;5111951;28;20104;-66
2021/12/17 14:07:34;;;;;;;16.52;7.97;;;6.00;99.90;;;;;;5112869;28;20185;-66
2021/12/17 14:10:04;;;;;;;17.52;8.57;;;5.90;99.90;;;;;;5112677;28;20043;-67
2021/12/17 14:12:36;;;;;;;16.05;7.88;;;5.90;99.90;;;;;;5112610;28;20101;-67
2021/12/17 14:15:06;;;;;;;19.25;8.15;;;5.90;99.90;;;;;;5112890;28;20058;-67
2021/12/17 14:17:35;;;;;;;17.33;9.40;;;6.10;99.90;;;;;;5113151;28;20047;-66
2021/12/17 14:20:09;;;;;;;16.05;8.18;;;6.10;99.90;;;;;;5113308;28;20051;-67
2021/12/17 14:22:38;;;;;;;15.75;8.32;;;6.00;99.90;;;;;;5113455;28;20087;-67
2021/12/17 14:25:35;;;;;;;18.20;9.40;;;6.00;99.90;;;;;;5111050;28;20104;-66
2021/12/17 14:28:09;;;;;;;18.35;9.48;;;6.00;99.90;;;;;;5112803;28;20047;-67
2021/12/17 14:30:37;;;;;;;16.60;9.00;;;5.90;99.90;;;;;;5112649;28;20491;-67
2021/12/17 14:33:10;;;;;;;14.05;8.30;;;6.00;99.90;;;;;;5112303;28;20059;-66
2021/12/17 14:35:56;;;;;;;17.80;10.15;;;6.00;99.90;;;;;;5110950;28;20439;-67
2021/12/17 14:38:35;;;;;;;18.25;9.88;;;5.90;99.90;;;;;;5112298;28;20465;-67
2021/12/17 14:41:03;;;;;;;19.88;9.55;;;5.80;99.90;;;;;;5112502;28;20428;-67
2021/12/17 14:43:37;;;;;;;18.92;10.55;;;5.70;99.90;;;;;;5112227;28;20058;-66
2021/12/17 14:46:19;;;;;;;32.40;10.35;;;5.50;99.90;;;;;;5111281;28;20142;-67
2021/12/17 14:48:58;;;;;;;19.63;10.13;;;5.30;99.90;;;;;;5112132;28;20175;-66
2021/12/17 15:05:18;;;;;;;32.97;19.10;;;4.60;99.90;;;;;;5113380;28;20403;-66
2021/12/17 15:07:47;;;;;;;46.97;28.17;;;4.30;99.90;;;;;;5112916;28;20100;-66
2021/12/17 15:10:18;;;;;;;53.22;30.92;;;4.10;99.90;;;;;;5111714;28;20486;-66
2021/12/17 15:12:45;;;;;;;33.63;19.33;;;4.10;99.90;;;;;;5125152;28;20052;-67
2021/12/17 15:15:20;;;;;;;29.48;16.35;;;4.00;99.90;;;;;;5113129;28;20390;-66
2021/12/17 15:17:48;;;;;;;29.45;15.15;;;3.90;99.90;;;;;;5114429;28;20063;-66
2021/12/17 15:20:18;;;;;;;30.70;15.85;;;3.80;99.90;;;;;;5114255;28;20055;-66
2021/12/17 15:22:47;;;;;;;30.47;16.90;;;3.70;99.90;;;;;;5113865;28;20062;-66
2021/12/17 15:25:15;;;;;;;32.37;17.87;;;3.60;99.90;;;;;;5111011;28;20051;-66